createdAt,value
2022-09-12T00:01:11.428Z,98817.47
2022-09-12T00:03:40.692Z,98813.16
2022-09-12T00:06:11.090Z,98814.88
2022-09-12T00:08:39.793Z,98810.44
2022-09-12T00:11:09.968Z,98815.34
2022-09-12T00:13:41.979Z,98810.25
2022-09-12T00:16:16.266Z,98810.84
2022-09-12T00:18:46.096Z,98818.41
2022-09-12T00:21:14.790Z,98814.97
2022-09-12T00:23:42.857Z,98819.97
2022-09-12T00:26:11.321Z,98814.50
2022-09-12T00:28:41.881Z,98804.53
2022-09-12T00:31:12.028Z,98816.88
2022-09-12T00:33:40.790Z,98812.00
2022-09-12T00:36:11.361Z,98811.25
2022-09-12T00:38:42.208Z,98800.59
2022-09-12T00:41:16.470Z,98807.97
2022-09-12T00:43:48.262Z,98812.53
2022-09-12T00:46:27.617Z,98807.91
2022-09-12T00:49:01.086Z,98803.75
2022-09-12T00:51:33.310Z,98801.78
2022-09-12T00:54:04.153Z,98805.81
2022-09-12T00:56:32.670Z,98802.44
2022-09-12T00:59:06.343Z,98802.28
2022-09-12T01:01:35.150Z,98791.72
2022-09-12T01:04:03.966Z,98809.66
2022-09-12T01:06:37.664Z,98802.66
2022-09-12T01:09:06.476Z,98797.66
2022-09-12T01:11:38.309Z,98795.56
2022-09-12T01:14:08.615Z,98793.59
2022-09-12T01:16:38.073Z,98799.44
2022-09-12T01:19:28.240Z,98793.94
2022-09-12T01:22:12.088Z,98785.69
2022-09-12T01:24:55.827Z,98787.84
2022-09-12T01:27:48.163Z,98789.97
2022-09-12T01:30:49.366Z,98780.09
2022-09-12T01:33:46.569Z,98781.72
2022-09-12T01:36:34.620Z,98777.59
2022-09-12T01:39:05.460Z,98779.31
2022-09-12T01:41:45.960Z,98767.78
2022-09-12T01:44:24.352Z,98769.28
2022-09-12T01:46:59.336Z,98771.44
2022-09-12T01:49:34.246Z,98758.78
2022-09-12T01:52:07.459Z,98763.88
2022-09-12T01:54:40.004Z,98759.00
2022-09-12T01:57:15.052Z,98765.13
2022-09-12T01:59:48.803Z,98761.63
2022-09-12T02:02:19.379Z,98761.38
2022-09-12T02:04:52.871Z,98752.19
2022-09-12T02:07:22.636Z,98755.91
2022-09-12T02:09:55.486Z,98748.50
2022-09-12T02:12:29.159Z,98750.31
2022-09-12T02:15:01.224Z,98750.00
2022-09-12T02:17:33.742Z,98737.91
2022-09-12T02:20:07.576Z,98746.22
2022-09-12T02:22:37.031Z,98736.88
2022-09-12T02:25:08.738Z,98740.78
2022-09-12T02:27:41.444Z,98738.13
2022-09-12T02:30:10.993Z,98751.31
2022-09-12T02:32:45.000Z,98739.31
2022-09-12T02:35:23.808Z,98760.69
2022-09-12T02:37:59.737Z,98752.69
2022-09-12T02:40:27.925Z,98749.38
2022-09-12T02:42:56.406Z,98764.88
2022-09-12T02:45:24.685Z,98763.16
2022-09-12T02:47:59.693Z,98767.00
2022-09-12T02:50:28.113Z,98764.00
2022-09-12T02:52:59.926Z,98763.16
2022-09-12T02:55:28.174Z,98759.31
2022-09-12T02:57:56.187Z,98759.78
2022-09-12T03:00:25.656Z,98765.22
2022-09-12T03:03:14.889Z,98765.25
2022-09-12T03:05:48.689Z,98758.34
2022-09-12T03:08:23.087Z,98753.41
2022-09-12T03:11:11.241Z,98735.75
2022-09-12T03:13:51.831Z,98752.56
2022-09-12T03:16:29.683Z,98750.25
2022-09-12T03:19:04.516Z,98741.41
2022-09-12T03:21:37.964Z,98751.28
2022-09-12T03:24:14.401Z,98748.38
2022-09-12T03:26:49.432Z,98735.44
2022-09-12T03:29:19.277Z,98744.56
2022-09-12T03:31:52.384Z,98745.44
2022-09-12T03:34:24.531Z,98742.00
2022-09-12T03:36:53.070Z,98742.16
2022-09-12T03:39:21.139Z,98742.47
2022-09-12T03:41:49.139Z,98741.38
2022-09-12T03:44:17.386Z,98739.16
2022-09-12T03:46:45.616Z,98740.63
2022-09-12T03:49:13.787Z,98738.97
2022-09-12T03:51:43.671Z,98736.34
2022-09-12T03:54:12.395Z,98734.69
2022-09-12T03:56:41.694Z,98720.34
2022-09-12T03:59:09.766Z,98741.81
2022-09-12T04:01:38.649Z,98742.28
2022-09-12T04:04:06.652Z,98736.28
2022-09-12T04:06:34.641Z,98730.97
2022-09-12T04:09:04.689Z,98736.28
2022-09-12T04:11:32.801Z,98735.22
2022-09-12T04:14:00.800Z,98735.34
2022-09-12T04:16:28.853Z,98735.09
2022-09-12T04:18:56.850Z,98735.09
2022-09-12T04:21:24.909Z,98732.19
2022-09-12T04:23:53.238Z,98734.00
2022-09-12T04:26:22.985Z,98732.69
2022-09-12T04:28:56.318Z,98726.88
2022-09-12T04:31:25.000Z,98730.75
2022-09-12T04:33:56.074Z,98734.38
2022-09-12T04:36:24.244Z,98734.88
2022-09-12T04:38:52.877Z,98730.53
2022-09-12T04:41:24.091Z,98735.84
2022-09-12T04:43:54.352Z,98728.44
2022-09-12T04:46:22.554Z,98733.88
2022-09-12T04:48:55.900Z,98733.19
2022-09-12T04:51:28.001Z,98730.13
2022-09-12T04:53:58.228Z,98715.25
2022-09-12T04:56:28.482Z,98710.19
2022-09-12T04:58:58.864Z,98698.59
2022-09-12T05:01:28.214Z,98699.56
2022-09-12T05:03:57.381Z,98698.25
2022-09-12T05:06:27.092Z,98705.84
2022-09-12T05:08:56.064Z,98718.50
2022-09-12T05:11:36.738Z,98724.59
2022-09-12T05:14:11.315Z,98720.09
2022-09-12T05:16:39.461Z,98725.31
2022-09-12T05:19:07.769Z,98723.03
2022-09-12T05:21:35.765Z,98727.16
2022-09-12T05:24:06.270Z,98722.53
2022-09-12T05:26:34.395Z,98724.22
2022-09-12T05:29:02.400Z,98721.31
2022-09-12T05:31:31.825Z,98725.44
2022-09-12T05:33:59.785Z,98725.53
2022-09-12T05:36:29.966Z,98720.84
2022-09-12T05:38:58.388Z,98728.78
2022-09-12T05:41:27.717Z,98729.72
2022-09-12T05:43:57.147Z,98738.97
2022-09-12T05:46:27.341Z,98752.97
2022-09-12T05:48:57.390Z,98748.03
2022-09-12T05:51:26.976Z,98751.03
2022-09-12T05:53:56.959Z,98767.13
2022-09-12T05:56:26.530Z,98765.91
2022-09-12T05:58:56.263Z,98762.00
2022-09-12T06:01:25.260Z,98767.84
2022-09-12T06:03:55.377Z,98769.97
2022-09-12T06:06:26.505Z,98775.28
2022-09-12T06:08:57.931Z,98778.28
2022-09-12T06:11:28.716Z,98777.66
2022-09-12T06:13:58.134Z,98783.47
2022-09-12T06:16:28.390Z,98779.91
2022-09-12T06:18:57.970Z,98776.38
2022-09-12T06:21:28.483Z,98777.81
2022-09-12T06:23:58.716Z,98769.81
2022-09-12T06:26:27.546Z,98779.56
2022-09-12T06:28:57.218Z,98781.13
2022-09-12T06:31:26.931Z,98781.19
2022-09-12T06:33:59.755Z,98785.88
2022-09-12T06:36:31.727Z,98778.34
2022-09-12T06:39:01.999Z,98779.75
2022-09-12T06:41:31.262Z,98778.31
2022-09-12T06:44:00.323Z,98778.59
2022-09-12T06:46:29.253Z,98779.94
2022-09-12T06:48:57.706Z,98780.06
2022-09-12T06:51:26.370Z,98773.44
2022-09-12T06:53:57.013Z,98762.84
2022-09-12T06:56:26.531Z,98754.19
2022-09-12T06:58:56.908Z,98761.19
2022-09-12T07:01:26.615Z,98758.72
2022-09-12T07:03:56.878Z,98751.94
2022-09-12T07:06:29.868Z,98752.84
2022-09-12T07:09:00.494Z,98753.69
2022-09-12T07:11:31.907Z,98751.59
2022-09-12T07:14:01.552Z,98752.13
2022-09-12T07:16:30.330Z,98741.34
2022-09-12T07:19:01.458Z,98738.97
2022-09-12T07:21:30.604Z,98736.91
2022-09-12T07:24:00.092Z,98738.66
2022-09-12T07:26:29.291Z,98735.53
2022-09-12T07:29:18.725Z,98734.28
2022-09-12T07:31:47.298Z,98741.59
2022-09-12T07:34:15.352Z,98744.13
2022-09-12T07:36:43.381Z,98735.56
2022-09-12T07:39:12.781Z,98742.41
2022-09-12T07:41:40.797Z,98734.16
2022-09-12T07:44:08.900Z,98733.63
2022-09-12T07:46:36.884Z,98736.03
2022-09-12T07:49:04.979Z,98735.81
2022-09-12T07:51:33.143Z,98748.53
2022-09-12T07:54:01.357Z,98741.81
2022-09-12T07:56:34.624Z,98748.91
2022-09-12T07:59:05.138Z,98757.09
2022-09-12T08:01:33.390Z,98750.06
2022-09-12T08:04:01.756Z,98755.06
2022-09-12T08:06:33.869Z,98753.75
2022-09-12T08:09:01.969Z,98752.88
2022-09-12T08:11:31.552Z,98750.22
2022-09-12T08:14:00.184Z,98760.38
2022-09-12T08:16:31.285Z,98756.25
2022-09-12T08:18:59.388Z,98750.50
2022-09-12T08:21:29.464Z,98727.78
2022-09-12T08:23:59.374Z,98752.34
2022-09-12T08:26:29.022Z,98757.28
2022-09-12T08:28:58.706Z,98755.06
2022-09-12T08:31:28.630Z,98751.69
2022-09-12T08:33:57.520Z,98750.59
2022-09-12T08:36:27.788Z,98743.44
2022-09-12T08:39:00.044Z,98755.78
2022-09-12T08:41:32.967Z,98755.28
2022-09-12T08:44:18.500Z,98753.78
2022-09-12T08:46:53.287Z,98762.50
2022-09-12T08:49:28.546Z,98759.31
2022-09-12T08:51:59.338Z,98759.84
2022-09-12T08:54:30.302Z,98757.88
2022-09-12T08:57:03.302Z,98763.78
2022-09-12T08:59:39.295Z,98756.19
2022-09-12T09:02:29.803Z,98753.16
2022-09-12T09:05:11.981Z,98745.25
2022-09-12T09:08:11.512Z,98738.31
2022-09-12T09:10:50.438Z,98752.66
2022-09-12T09:13:47.317Z,98740.00
2022-09-12T09:16:26.405Z,98737.44
2022-09-12T09:18:56.922Z,98740.84
2022-09-12T09:21:29.494Z,98723.16
2022-09-12T09:24:05.213Z,98737.22
2022-09-12T09:26:43.082Z,98731.81
2022-09-12T09:29:19.502Z,98734.38
2022-09-12T09:31:53.136Z,98738.78
2022-09-12T09:34:22.339Z,98732.09
2022-09-12T09:36:58.301Z,98738.56
2022-09-12T09:39:37.701Z,98726.88
2022-09-12T09:42:24.933Z,98727.88
2022-09-12T09:44:56.102Z,98716.34
2022-09-12T09:47:25.558Z,98724.13
2022-09-12T09:49:53.630Z,98713.19
2022-09-12T09:52:28.624Z,98709.09
2022-09-12T09:54:59.090Z,98711.94
2022-09-12T09:57:41.177Z,98711.97
2022-09-12T10:00:30.738Z,98714.50
2022-09-12T10:03:27.542Z,98712.91
2022-09-12T10:05:58.861Z,98713.38
2022-09-12T10:08:28.783Z,98707.16
2022-09-12T10:11:08.114Z,98707.13
2022-09-12T10:13:40.670Z,98704.44
2022-09-12T10:16:20.165Z,98703.75
2022-09-12T10:18:52.623Z,98695.44
2022-09-12T10:21:30.318Z,98692.97
2022-09-12T10:24:06.307Z,98695.22
2022-09-12T10:26:38.847Z,98695.81
2022-09-12T10:29:20.045Z,98694.47
2022-09-12T10:31:52.470Z,98702.41
2022-09-12T10:34:27.956Z,98693.22
2022-09-12T10:37:01.820Z,98681.47
2022-09-12T10:39:31.193Z,98712.81
2022-09-12T10:41:59.342Z,98697.91
2022-09-12T10:44:29.722Z,98707.09
2022-09-12T10:46:59.175Z,98697.63
2022-09-12T10:49:31.305Z,98704.13
2022-09-12T10:52:17.935Z,98686.75
2022-09-12T10:54:46.659Z,98706.69
2022-09-12T10:57:43.119Z,98698.88
2022-09-12T11:00:17.890Z,98692.59
2022-09-12T11:02:52.704Z,98694.53
2022-09-12T11:05:46.351Z,98686.78
2022-09-12T11:08:42.357Z,98693.56
2022-09-12T11:11:25.346Z,98677.84
2022-09-12T11:14:11.032Z,98672.34
2022-09-12T11:16:50.220Z,98683.97
2022-09-12T11:19:35.121Z,98678.41
2022-09-12T11:22:18.396Z,98677.69
2022-09-12T11:25:15.082Z,98679.38
2022-09-12T11:27:59.509Z,98669.56
2022-09-12T11:30:31.957Z,98672.69
2022-09-12T11:33:26.173Z,98669.34
2022-09-12T11:35:57.461Z,98659.97
2022-09-12T11:38:47.401Z,98650.56
2022-09-12T11:41:21.138Z,98644.91
2022-09-12T11:43:54.042Z,98653.09
2022-09-12T11:46:26.222Z,98643.25
2022-09-12T11:48:59.755Z,98649.31
2022-09-12T11:51:29.277Z,98640.13
2022-09-12T11:54:13.248Z,98640.13
2022-09-12T11:56:46.113Z,98632.59
2022-09-12T11:59:24.924Z,98630.09
2022-09-12T12:02:00.208Z,98627.59
2022-09-12T12:04:39.091Z,98634.09
2022-09-12T12:07:09.452Z,98633.47
2022-09-12T12:09:47.632Z,98628.88
2022-09-12T12:12:20.508Z,98631.78
2022-09-12T12:14:52.241Z,98618.81
2022-09-12T12:17:22.600Z,98625.50
2022-09-12T12:20:06.529Z,98621.31
2022-09-12T12:22:36.501Z,98617.75
2022-09-12T12:25:29.609Z,98606.06
2022-09-12T12:28:01.939Z,98609.81
2022-09-12T12:31:02.140Z,98613.75
2022-09-12T12:34:03.436Z,98612.94
2022-09-12T12:36:40.517Z,98603.91
2022-09-12T12:39:45.011Z,98605.09
2022-09-12T12:43:05.059Z,98591.03
2022-09-12T12:46:04.845Z,98581.25
2022-09-12T12:48:37.360Z,98584.34
2022-09-12T12:51:38.049Z,98583.78
2022-09-12T12:54:20.592Z,98577.03
2022-09-12T12:56:48.711Z,98571.22
2022-09-12T12:59:23.180Z,98572.72
2022-09-12T13:01:55.521Z,98566.69
2022-09-12T13:04:26.511Z,98569.63
2022-09-12T13:07:07.683Z,98541.63
2022-09-12T13:09:45.035Z,98559.16
2022-09-12T13:12:20.552Z,98557.41
2022-09-12T13:14:56.207Z,98555.94
2022-09-12T13:17:28.821Z,98553.72
2022-09-12T13:20:26.651Z,98559.69
2022-09-12T13:22:54.851Z,98550.75
2022-09-12T13:25:29.846Z,98555.34
2022-09-12T13:27:59.882Z,98539.38
2022-09-12T13:30:30.313Z,98552.13
2022-09-12T13:33:00.429Z,98549.31
2022-09-12T13:35:38.827Z,98538.41
2022-09-12T13:38:17.176Z,98533.72
2022-09-12T13:41:02.279Z,98542.78
2022-09-12T13:43:39.108Z,98528.72
2022-09-12T13:46:11.114Z,98538.47
2022-09-12T13:48:41.189Z,98540.75
2022-09-12T13:51:16.951Z,98530.84
2022-09-12T13:53:48.197Z,98529.53
2022-09-12T13:56:18.856Z,98521.44
2022-09-12T13:58:55.647Z,98515.78
2022-09-12T14:01:26.654Z,98512.19
2022-09-12T14:04:13.213Z,98512.59
2022-09-12T14:06:49.703Z,98513.41
2022-09-12T14:09:25.380Z,98507.28
2022-09-12T14:11:54.288Z,98487.38
2022-09-12T14:14:29.447Z,98482.22
2022-09-12T14:16:59.128Z,98497.06
2022-09-12T14:19:29.375Z,98502.03
2022-09-12T14:21:58.453Z,98491.81
2022-09-12T14:24:26.926Z,98497.72
2022-09-12T14:26:57.091Z,98497.00
2022-09-12T14:29:26.413Z,98490.22
2022-09-12T14:32:07.129Z,98489.09
2022-09-12T14:34:35.152Z,98482.44
2022-09-12T14:37:07.760Z,98497.31
2022-09-12T14:39:41.595Z,98471.75
2022-09-12T14:42:17.688Z,98490.69
2022-09-12T14:44:56.158Z,98487.72
2022-09-12T14:47:29.390Z,98476.41
2022-09-12T14:49:57.448Z,98466.59
2022-09-12T14:52:28.916Z,98465.25
2022-09-12T14:54:58.658Z,98470.03
2022-09-12T14:57:36.582Z,98474.38
2022-09-12T15:00:20.991Z,98460.31
2022-09-12T15:02:51.253Z,98464.44
2022-09-12T15:05:25.924Z,98459.22
2022-09-12T15:08:00.314Z,98462.88
2022-09-12T15:10:32.488Z,98459.31
2022-09-12T15:13:21.345Z,98463.34
2022-09-12T15:15:52.020Z,98456.75
2022-09-12T15:18:22.338Z,98464.66
2022-09-12T15:20:52.971Z,98461.00
2022-09-12T15:23:43.779Z,98459.69
2022-09-12T15:26:14.118Z,98459.44
2022-09-12T15:28:42.374Z,98456.16
2022-09-12T15:31:18.699Z,98453.06
2022-09-12T15:33:48.328Z,98454.97
2022-09-12T15:36:18.835Z,98453.66
2022-09-12T15:38:47.796Z,98448.78
2022-09-12T15:41:18.485Z,98456.38
2022-09-12T15:43:46.831Z,98454.94
2022-09-12T15:46:18.072Z,98462.06
2022-09-12T15:48:56.659Z,98451.25
2022-09-12T15:51:28.907Z,98446.06
2022-09-12T15:53:57.806Z,98446.41
2022-09-12T15:56:28.481Z,98445.84
2022-09-12T15:58:59.798Z,98443.34
2022-09-12T16:01:34.712Z,98436.69
2022-09-12T16:04:05.062Z,98448.06
2022-09-12T16:06:37.387Z,98438.81
2022-09-12T16:09:08.647Z,98428.09
2022-09-12T16:11:38.065Z,98428.38
2022-09-12T16:14:08.750Z,98434.75
2022-09-12T16:16:36.920Z,98427.19
2022-09-12T16:19:06.414Z,98424.31
2022-09-12T16:21:34.427Z,98409.31
2022-09-12T16:24:02.431Z,98420.25
2022-09-12T16:26:30.521Z,98412.75
2022-09-12T16:28:59.217Z,98412.81
2022-09-12T16:31:29.099Z,98414.06
2022-09-12T16:33:57.141Z,98406.47
2022-09-12T16:36:26.557Z,98409.16
2022-09-12T16:38:55.821Z,98411.66
2022-09-12T16:41:26.477Z,98403.09
2022-09-12T16:43:55.103Z,98405.53
2022-09-12T16:46:25.223Z,98412.69
2022-09-12T16:48:55.044Z,98400.03
2022-09-12T16:51:26.065Z,98405.81
2022-09-12T16:53:56.605Z,98397.28
2022-09-12T16:56:25.493Z,98403.81
2022-09-12T16:58:53.771Z,98401.59
2022-09-12T17:01:24.317Z,98393.19
2022-09-12T17:03:54.640Z,98394.47
2022-09-12T17:06:22.680Z,98389.03
2022-09-12T17:08:53.295Z,98394.66
2022-09-12T17:11:25.271Z,98397.06
2022-09-12T17:14:11.651Z,98397.06
2022-09-12T17:16:41.937Z,98396.81
2022-09-12T17:19:14.660Z,98393.97
2022-09-12T17:21:42.812Z,98390.69
2022-09-12T17:24:10.906Z,98396.97
2022-09-12T17:26:40.361Z,98394.69
2022-09-12T17:29:08.353Z,98397.84
2022-09-12T17:31:36.531Z,98388.88
2022-09-12T17:34:05.007Z,98391.72
2022-09-12T17:36:33.237Z,98389.38
2022-09-12T17:39:03.626Z,98390.31
2022-09-12T17:41:33.017Z,98402.56
2022-09-12T17:44:03.654Z,98404.31
2022-09-12T17:46:35.036Z,98400.81
2022-09-12T17:49:04.740Z,98409.34
2022-09-12T17:51:32.785Z,98401.78
2022-09-12T17:54:02.671Z,98401.00
2022-09-12T17:56:32.343Z,98406.81
2022-09-12T17:59:02.797Z,98405.53
2022-09-12T18:01:48.822Z,98405.19
2022-09-12T18:04:17.433Z,98410.84
2022-09-12T18:06:48.224Z,98414.28
2022-09-12T18:09:18.459Z,98414.00
2022-09-12T18:11:46.959Z,98411.88
2022-09-12T18:14:17.555Z,98419.16
2022-09-12T18:16:46.004Z,98417.88
2022-09-12T18:19:14.375Z,98413.38
2022-09-12T18:21:42.636Z,98414.63
2022-09-12T18:24:11.337Z,98419.56
2022-09-12T18:26:39.396Z,98414.34
2022-09-12T18:29:08.314Z,98420.13
2022-09-12T18:31:37.906Z,98414.44
2022-09-12T18:34:06.326Z,98421.84
2022-09-12T18:36:34.325Z,98423.06
2022-09-12T18:39:02.292Z,98421.66
2022-09-12T18:41:30.322Z,98430.53
2022-09-12T18:43:59.801Z,98423.06
2022-09-12T18:46:29.072Z,98428.53
2022-09-12T18:48:59.656Z,98425.28
2022-09-12T18:51:31.678Z,98426.75
2022-09-12T18:54:01.524Z,98429.44
2022-09-12T18:56:33.046Z,98435.91
2022-09-12T18:59:02.792Z,98436.78
2022-09-12T19:01:32.741Z,98432.59
2022-09-12T19:04:04.766Z,98425.31
2022-09-12T19:06:34.985Z,98428.41
2022-09-12T19:09:07.591Z,98420.81
2022-09-12T19:11:37.137Z,98418.59
2022-09-12T19:14:05.690Z,98427.34
2022-09-12T19:16:33.752Z,98426.25
2022-09-12T19:19:03.726Z,98420.38
2022-09-12T19:21:33.123Z,98428.44
2022-09-12T19:24:02.781Z,98428.63
2022-09-12T19:26:31.056Z,98432.16
2022-09-12T19:28:59.441Z,98426.97
2022-09-12T19:31:27.691Z,98427.97
2022-09-12T19:34:00.949Z,98417.06
2022-09-12T19:36:47.296Z,98425.03
2022-09-12T19:39:16.573Z,98425.69
2022-09-12T19:41:44.719Z,98425.94
2022-09-12T19:44:12.924Z,98414.34
2022-09-12T19:46:41.854Z,98424.56
2022-09-12T19:49:11.592Z,98419.03
2022-09-12T19:51:41.338Z,98426.78
2022-09-12T19:54:09.662Z,98416.91
2022-09-12T19:56:37.694Z,98408.19
2022-09-12T19:59:05.635Z,98414.75
2022-09-12T20:01:34.853Z,98414.41
2022-09-12T20:04:03.536Z,98412.75
2022-09-12T20:06:31.578Z,98417.16
2022-09-12T20:09:00.936Z,98406.41
2022-09-12T20:11:29.270Z,98409.97
2022-09-12T20:13:57.220Z,98405.94
2022-09-12T20:16:29.386Z,98402.38
2022-09-12T20:18:59.239Z,98394.16
2022-09-12T20:21:32.140Z,98400.19
2022-09-12T20:24:06.889Z,98390.25
2022-09-12T20:26:35.521Z,98392.44
2022-09-12T20:29:04.836Z,98396.84
2022-09-12T20:31:33.597Z,98397.13
2022-09-12T20:34:01.740Z,98391.09
2022-09-12T20:36:29.978Z,98396.63
2022-09-12T20:39:00.184Z,98392.81
2022-09-12T20:41:32.060Z,98391.16
2022-09-12T20:44:00.288Z,98383.84
2022-09-12T20:46:29.639Z,98377.94
2022-09-12T20:48:58.613Z,98382.47
2022-09-12T20:51:29.777Z,98387.88
2022-09-12T20:53:58.872Z,98380.28
2022-09-12T20:56:28.554Z,98381.97
2022-09-12T20:58:58.016Z,98380.81
2022-09-12T21:01:26.968Z,98384.84
2022-09-12T21:03:55.249Z,98386.16
2022-09-12T21:06:23.533Z,98379.28
2022-09-12T21:08:51.882Z,98382.13
2022-09-12T21:11:20.683Z,98399.78
2022-09-12T21:13:48.712Z,98402.63
2022-09-12T21:16:19.814Z,98404.31
2022-09-12T21:18:48.655Z,98408.34
2022-09-12T21:21:17.175Z,98408.19
2022-09-12T21:23:45.231Z,98412.06
2022-09-12T21:26:13.299Z,98406.84
2022-09-12T21:28:41.370Z,98402.81
2022-09-12T21:31:09.812Z,98407.34
2022-09-12T21:33:39.300Z,98418.41
2022-09-12T21:36:08.424Z,98410.38
2022-09-12T21:38:36.636Z,98410.38
2022-09-12T21:41:09.676Z,98415.41
2022-09-12T21:43:38.657Z,98413.88
2022-09-12T21:46:08.461Z,98404.00
2022-09-12T21:48:36.965Z,98400.59
2022-09-12T21:51:06.964Z,98401.59
2022-09-12T21:53:35.001Z,98405.38
2022-09-12T21:56:03.781Z,98412.66
2022-09-12T21:58:31.834Z,98408.66
2022-09-12T22:01:00.454Z,98405.44
2022-09-12T22:03:29.143Z,98409.03
2022-09-12T22:06:01.616Z,98406.19
2022-09-12T22:08:33.284Z,98411.19
2022-09-12T22:11:02.730Z,98396.75
2022-09-12T22:13:32.265Z,98404.66
2022-09-12T22:16:00.571Z,98392.81
2022-09-12T22:18:28.683Z,98402.91
2022-09-12T22:21:01.251Z,98392.66
2022-09-12T22:23:48.279Z,98393.97
2022-09-12T22:26:16.521Z,98400.34
2022-09-12T22:28:45.145Z,98393.28
2022-09-12T22:31:14.185Z,98399.34
2022-09-12T22:33:42.413Z,98386.91
2022-09-12T22:36:11.549Z,98385.06
2022-09-12T22:38:41.073Z,98384.88
2022-09-12T22:41:11.333Z,98376.28
2022-09-12T22:43:39.539Z,98385.09
2022-09-12T22:46:08.631Z,98397.72
2022-09-12T22:48:37.450Z,98390.25
2022-09-12T22:51:06.062Z,98391.34
2022-09-12T22:53:34.157Z,98387.16
2022-09-12T22:56:05.160Z,98383.75
2022-09-12T22:58:33.673Z,98378.00
2022-09-12T23:01:01.732Z,98386.84
2022-09-12T23:03:29.874Z,98382.78
2022-09-12T23:05:57.901Z,98377.63
2022-09-12T23:08:29.542Z,98375.69
2022-09-12T23:11:06.507Z,98377.63
2022-09-12T23:13:34.596Z,98383.44
2022-09-12T23:16:04.408Z,98375.00
2022-09-12T23:18:34.709Z,98377.25
2022-09-12T23:21:05.276Z,98364.81
2022-09-12T23:23:33.730Z,98365.22
2022-09-12T23:26:45.617Z,98358.66
2022-09-12T23:29:13.632Z,98360.63
2022-09-12T23:31:41.744Z,98347.88
2022-09-12T23:34:11.171Z,98342.72
2022-09-12T23:36:39.299Z,98339.22
2022-09-12T23:39:07.309Z,98338.22
2022-09-12T23:41:35.277Z,98336.78
2022-09-12T23:44:04.764Z,98341.13
2022-09-12T23:46:32.769Z,98342.03
2022-09-12T23:49:00.784Z,98337.22
2022-09-12T23:51:28.748Z,98345.13
2022-09-12T23:53:56.732Z,98348.91
2022-09-12T23:56:24.684Z,98340.50
2022-09-12T23:58:52.760Z,98337.22
